sensor_id;sensor_type;location;lat;lon;timestamp;P1;durP1;ratioP1;P2;durP2;ratioP2
73102;SDS011;61294;65.988;29.172;2024-01-06T00:01:38;2.72;;;1.60;;
73102;SDS011;61294;65.988;29.172;2024-01-06T00:04:04;2.78;;;1.50;;
73102;SDS011;61294;65.988;29.172;2024-01-06T00:06:30;3.67;;;1.70;;
73102;SDS011;61294;65.988;29.172;2024-01-06T00:08:56;3.03;;;1.63;;
73102;SDS011;61294;65.988;29.172;2024-01-06T00:11:22;2.53;;;1.70;;
73102;SDS011;61294;65.988;29.172;2024-01-06T00:13:48;5.13;;;1.90;;
73102;SDS011;61294;65.988;29.172;2024-01-06T00:16:18;2.75;;;1.55;;
73102;SDS011;61294;65.988;29.172;2024-01-06T00:18:47;3.08;;;2.00;;
73102;SDS011;61294;65.988;29.172;2024-01-06T00:21:13;4.95;;;1.92;;
73102;SDS011;61294;65.988;29.172;2024-01-06T00:23:40;3.45;;;1.80;;
73102;SDS011;61294;65.988;29.172;2024-01-06T00:26:06;6.05;;;1.98;;
73102;SDS011;61294;65.988;29.172;2024-01-06T00:28:33;2.35;;;1.58;;
73102;SDS011;61294;65.988;29.172;2024-01-06T00:30:59;3.40;;;2.38;;
73102;SDS011;61294;65.988;29.172;2024-01-06T00:33:25;3.78;;;1.90;;
73102;SDS011;61294;65.988;29.172;2024-01-06T00:35:51;4.85;;;1.90;;
73102;SDS011;61294;65.988;29.172;2024-01-06T00:38:16;3.63;;;2.08;;
73102;SDS011;61294;65.988;29.172;2024-01-06T00:40:42;3.85;;;1.50;;
73102;SDS011;61294;65.988;29.172;2024-01-06T00:43:09;3.00;;;1.70;;
73102;SDS011;61294;65.988;29.172;2024-01-06T00:45:34;2.85;;;1.80;;
73102;SDS011;61294;65.988;29.172;2024-01-06T00:48:00;4.35;;;2.10;;
73102;SDS011;61294;65.988;29.172;2024-01-06T00:50:26;6.07;;;2.13;;
73102;SDS011;61294;65.988;29.172;2024-01-06T00:52:52;6.82;;;1.70;;
73102;SDS011;61294;65.988;29.172;2024-01-06T00:55:21;2.03;;;1.83;;
73102;SDS011;61294;65.988;29.172;2024-01-06T00:57:48;4.05;;;2.13;;
73102;SDS011;61294;65.988;29.172;2024-01-06T01:00:16;2.75;;;2.15;;
73102;SDS011;61294;65.988;29.172;2024-01-06T01:02:41;7.15;;;1.70;;
73102;SDS011;61294;65.988;29.172;2024-01-06T01:05:07;3.50;;;2.05;;
73102;SDS011;61294;65.988;29.172;2024-01-06T01:07:33;4.13;;;1.73;;
73102;SDS011;61294;65.988;29.172;2024-01-06T01:09:59;2.97;;;1.92;;
73102;SDS011;61294;65.988;29.172;2024-01-06T01:12:25;2.88;;;1.73;;
73102;SDS011;61294;65.988;29.172;2024-01-06T01:14:52;3.40;;;1.70;;
73102;SDS011;61294;65.988;29.172;2024-01-06T01:17:18;2.42;;;1.45;;
73102;SDS011;61294;65.988;29.172;2024-01-06T01:19:45;2.42;;;2.00;;
73102;SDS011;61294;65.988;29.172;2024-01-06T01:22:11;2.72;;;1.52;;
73102;SDS011;61294;65.988;29.172;2024-01-06T01:24:37;2.63;;;1.70;;
73102;SDS011;61294;65.988;29.172;2024-01-06T01:27:03;2.70;;;1.67;;
73102;SDS011;61294;65.988;29.172;2024-01-06T01:29:29;2.72;;;1.50;;
73102;SDS011;61294;65.988;29.172;2024-01-06T01:31:54;3.17;;;1.75;;
73102;SDS011;61294;65.988;29.172;2024-01-06T01:34:20;2.50;;;1.58;;
73102;SDS011;61294;65.988;29.172;2024-01-06T01:36:46;2.08;;;1.70;;
73102;SDS011;61294;65.988;29.172;2024-01-06T01:39:12;6.13;;;2.20;;
73102;SDS011;61294;65.988;29.172;2024-01-06T01:41:39;2.25;;;1.50;;
73102;SDS011;61294;65.988;29.172;2024-01-06T01:44:05;3.65;;;1.70;;
73102;SDS011;61294;65.988;29.172;2024-01-06T01:46:31;2.95;;;1.80;;
73102;SDS011;61294;65.988;29.172;2024-01-06T01:48:57;9.27;;;1.83;;
73102;SDS011;61294;65.988;29.172;2024-01-06T01:51:26;2.35;;;1.60;;
73102;SDS011;61294;65.988;29.172;2024-01-06T01:53:56;3.03;;;1.75;;
73102;SDS011;61294;65.988;29.172;2024-01-06T01:56:23;7.57;;;1.92;;
73102;SDS011;61294;65.988;29.172;2024-01-06T01:58:50;3.53;;;1.63;;
73102;SDS011;61294;65.988;29.172;2024-01-06T02:01:16;1.77;;;1.50;;
73102;SDS011;61294;65.988;29.172;2024-01-06T02:03:42;3.47;;;2.05;;
73102;SDS011;61294;65.988;29.172;2024-01-06T02:06:09;2.95;;;1.48;;
73102;SDS011;61294;65.988;29.172;2024-01-06T02:08:35;2.72;;;1.85;;
73102;SDS011;61294;65.988;29.172;2024-01-06T02:11:01;2.38;;;1.63;;
73102;SDS011;61294;65.988;29.172;2024-01-06T02:13:35;3.75;;;2.10;;
73102;SDS011;61294;65.988;29.172;2024-01-06T02:16:02;3.03;;;1.50;;
73102;SDS011;61294;65.988;29.172;2024-01-06T02:18:29;3.78;;;2.00;;
73102;SDS011;61294;65.988;29.172;2024-01-06T02:20:59;2.78;;;1.50;;
73102;SDS011;61294;65.988;29.172;2024-01-06T02:23:27;3.75;;;3.17;;
73102;SDS011;61294;65.988;29.172;2024-01-06T02:25:54;3.35;;;1.80;;
73102;SDS011;61294;65.988;29.172;2024-01-06T02:28:20;3.05;;;1.90;;
73102;SDS011;61294;65.988;29.172;2024-01-06T02:30:46;1.98;;;1.30;;
73102;SDS011;61294;65.988;29.172;2024-01-06T02:33:12;1.98;;;1.40;;
73102;SDS011;61294;65.988;29.172;2024-01-06T02:35:38;2.35;;;1.50;;
73102;SDS011;61294;65.988;29.172;2024-01-06T02:38:05;2.35;;;1.60;;
73102;SDS011;61294;65.988;29.172;2024-01-06T02:40:31;2.63;;;1.65;;
73102;SDS011;61294;65.988;29.172;2024-01-06T02:42:58;5.38;;;1.75;;
73102;SDS011;61294;65.988;29.172;2024-01-06T02:45:24;3.53;;;1.45;;
73102;SDS011;61294;65.988;29.172;2024-01-06T02:47:50;3.50;;;1.63;;
73102;SDS011;61294;65.988;29.172;2024-01-06T02:50:16;1.88;;;1.60;;
73102;SDS011;61294;65.988;29.172;2024-01-06T02:52:42;3.05;;;1.75;;
73102;SDS011;61294;65.988;29.172;2024-01-06T02:55:08;4.22;;;1.70;;
73102;SDS011;61294;65.988;29.172;2024-01-06T02:57:34;2.17;;;1.50;;
73102;SDS011;61294;65.988;29.172;2024-01-06T03:00:01;1.67;;;1.40;;
73102;SDS011;61294;65.988;29.172;2024-01-06T03:02:26;2.22;;;1.42;;
73102;SDS011;61294;65.988;29.172;2024-01-06T03:04:52;1.85;;;1.45;;
73102;SDS011;61294;65.988;29.172;2024-01-06T03:07:18;4.07;;;1.85;;
73102;SDS011;61294;65.988;29.172;2024-01-06T03:09:44;2.42;;;1.50;;
73102;SDS011;61294;65.988;29.172;2024-01-06T03:12:10;1.92;;;1.55;;
73102;SDS011;61294;65.988;29.172;2024-01-06T03:14:36;2.38;;;1.70;;
73102;SDS011;61294;65.988;29.172;2024-01-06T03:17:02;5.10;;;1.70;;
73102;SDS011;61294;65.988;29.172;2024-01-06T03:19:28;3.10;;;1.70;;
73102;SDS011;61294;65.988;29.172;2024-01-06T03:21:54;3.42;;;1.65;;
73102;SDS011;61294;65.988;29.172;2024-01-06T03:24:24;2.75;;;1.48;;
73102;SDS011;61294;65.988;29.172;2024-01-06T03:26:51;3.53;;;1.63;;
73102;SDS011;61294;65.988;29.172;2024-01-06T03:29:17;2.10;;;1.55;;
73102;SDS011;61294;65.988;29.172;2024-01-06T03:31:43;2.00;;;1.48;;
73102;SDS011;61294;65.988;29.172;2024-01-06T03:34:09;2.10;;;1.45;;
73102;SDS011;61294;65.988;29.172;2024-01-06T03:36:39;2.30;;;1.90;;
73102;SDS011;61294;65.988;29.172;2024-01-06T03:39:05;4.38;;;1.83;;
73102;SDS011;61294;65.988;29.172;2024-01-06T03:41:31;4.03;;;2.15;;
73102;SDS011;61294;65.988;29.172;2024-01-06T03:43:57;2.03;;;1.63;;
73102;SDS011;61294;65.988;29.172;2024-01-06T03:46:24;3.25;;;1.60;;
73102;SDS011;61294;65.988;29.172;2024-01-06T03:48:49;3.50;;;1.50;;
73102;SDS011;61294;65.988;29.172;2024-01-06T03:51:15;3.00;;;1.45;;
73102;SDS011;61294;65.988;29.172;2024-01-06T03:53:41;2.28;;;1.83;;
73102;SDS011;61294;65.988;29.172;2024-01-06T03:56:07;4.95;;;1.98;;
73102;SDS011;61294;65.988;29.172;2024-01-06T03:58:33;7.82;;;2.53;;
73102;SDS011;61294;65.988;29.172;2024-01-06T04:01:00;2.95;;;1.60;;
73102;SDS011;61294;65.988;29.172;2024-01-06T04:03:26;4.57;;;1.90;;
73102;SDS011;61294;65.988;29.172;2024-01-06T04:05:52;8.55;;;2.25;;
73102;SDS011;61294;65.988;29.172;2024-01-06T04:08:20;2.95;;;1.83;;
73102;SDS011;61294;65.988;29.172;2024-01-06T04:10:46;3.17;;;1.85;;
73102;SDS011;61294;65.988;29.172;2024-01-06T04:13:11;2.92;;;1.92;;
73102;SDS011;61294;65.988;29.172;2024-01-06T04:15:37;3.63;;;1.90;;
73102;SDS011;61294;65.988;29.172;2024-01-06T04:18:04;5.07;;;2.17;;
73102;SDS011;61294;65.988;29.172;2024-01-06T04:20:31;4.35;;;1.80;;
73102;SDS011;61294;65.988;29.172;2024-01-06T04:22:57;3.63;;;1.58;;
73102;SDS011;61294;65.988;29.172;2024-01-06T04:25:23;8.85;;;2.03;;
73102;SDS011;61294;65.988;29.172;2024-01-06T04:27:49;3.97;;;1.63;;
73102;SDS011;61294;65.988;29.172;2024-01-06T04:30:15;4.32;;;2.05;;
73102;SDS011;61294;65.988;29.172;2024-01-06T04:32:42;4.72;;;1.67;;
73102;SDS011;61294;65.988;29.172;2024-01-06T04:35:08;8.68;;;3.55;;
73102;SDS011;61294;65.988;29.172;2024-01-06T04:37:35;11.55;;;2.45;;
73102;SDS011;61294;65.988;29.172;2024-01-06T04:40:01;5.32;;;2.17;;
73102;SDS011;61294;65.988;29.172;2024-01-06T04:42:27;4.55;;;1.83;;
73102;SDS011;61294;65.988;29.172;2024-01-06T04:44:53;3.75;;;2.33;;
73102;SDS011;61294;65.988;29.172;2024-01-06T04:47:19;5.28;;;2.50;;
73102;SDS011;61294;65.988;29.172;2024-01-06T04:49:45;4.65;;;2.00;;
73102;SDS011;61294;65.988;29.172;2024-01-06T04:52:11;5.30;;;2.50;;
73102;SDS011;61294;65.988;29.172;2024-01-06T04:54:37;5.32;;;2.75;;
73102;SDS011;61294;65.988;29.172;2024-01-06T04:57:03;5.65;;;3.08;;
73102;SDS011;61294;65.988;29.172;2024-01-06T04:59:29;5.82;;;3.72;;
73102;SDS011;61294;65.988;29.172;2024-01-06T05:01:55;3.85;;;3.28;;
73102;SDS011;61294;65.988;29.172;2024-01-06T05:04:23;3.47;;;2.78;;
73102;SDS011;61294;65.988;29.172;2024-01-06T05:06:49;4.68;;;2.78;;
73102;SDS011;61294;65.988;29.172;2024-01-06T05:09:16;4.47;;;2.13;;
73102;SDS011;61294;65.988;29.172;2024-01-06T05:11:45;4.10;;;1.85;;
73102;SDS011;61294;65.988;29.172;2024-01-06T05:14:11;2.95;;;1.98;;
73102;SDS011;61294;65.988;29.172;2024-01-06T05:16:37;3.78;;;2.28;;
73102;SDS011;61294;65.988;29.172;2024-01-06T05:19:03;2.67;;;1.70;;
73102;SDS011;61294;65.988;29.172;2024-01-06T05:21:29;3.85;;;1.95;;
73102;SDS011;61294;65.988;29.172;2024-01-06T05:23:55;3.78;;;2.05;;
73102;SDS011;61294;65.988;29.172;2024-01-06T05:26:21;3.83;;;1.90;;
73102;SDS011;61294;65.988;29.172;2024-01-06T05:28:47;2.95;;;2.13;;
73102;SDS011;61294;65.988;29.172;2024-01-06T05:31:13;3.30;;;1.98;;
73102;SDS011;61294;65.988;29.172;2024-01-06T05:33:39;7.15;;;2.00;;
73102;SDS011;61294;65.988;29.172;2024-01-06T05:36:05;3.10;;;1.77;;
73102;SDS011;61294;65.988;29.172;2024-01-06T05:38:31;4.57;;;2.05;;
73102;SDS011;61294;65.988;29.172;2024-01-06T05:40:56;3.90;;;1.98;;
73102;SDS011;61294;65.988;29.172;2024-01-06T05:43:22;4.68;;;1.73;;
73102;SDS011;61294;65.988;29.172;2024-01-06T05:45:48;3.78;;;2.15;;
73102;SDS011;61294;65.988;29.172;2024-01-06T05:48:14;2.85;;;2.00;;
73102;SDS011;61294;65.988;29.172;2024-01-06T05:50:40;3.45;;;2.20;;
73102;SDS011;61294;65.988;29.172;2024-01-06T05:53:06;3.20;;;1.90;;
73102;SDS011;61294;65.988;29.172;2024-01-06T05:55:33;5.25;;;2.28;;
73102;SDS011;61294;65.988;29.172;2024-01-06T05:57:59;4.38;;;2.30;;
73102;SDS011;61294;65.988;29.172;2024-01-06T06:00:26;6.65;;;2.72;;
73102;SDS011;61294;65.988;29.172;2024-01-06T06:02:52;5.63;;;3.65;;
73102;SDS011;61294;65.988;29.172;2024-01-06T06:05:18;10.82;;;2.97;;
73102;SDS011;61294;65.988;29.172;2024-01-06T06:07:45;6.28;;;2.75;;
73102;SDS011;61294;65.988;29.172;2024-01-06T06:10:11;6.85;;;2.88;;
73102;SDS011;61294;65.988;29.172;2024-01-06T06:12:38;7.45;;;2.88;;
73102;SDS011;61294;65.988;29.172;2024-01-06T06:15:04;6.70;;;3.00;;
73102;SDS011;61294;65.988;29.172;2024-01-06T06:17:31;10.82;;;3.92;;
73102;SDS011;61294;65.988;29.172;2024-01-06T06:19:57;7.60;;;3.30;;
73102;SDS011;61294;65.988;29.172;2024-01-06T06:22:24;8.50;;;3.22;;
73102;SDS011;61294;65.988;29.172;2024-01-06T06:24:59;5.75;;;2.65;;
73102;SDS011;61294;65.988;29.172;2024-01-06T06:27:25;5.47;;;2.90;;
73102;SDS011;61294;65.988;29.172;2024-01-06T06:29:52;7.80;;;3.50;;
73102;SDS011;61294;65.988;29.172;2024-01-06T06:32:18;6.15;;;3.28;;
73102;SDS011;61294;65.988;29.172;2024-01-06T06:34:44;6.13;;;3.30;;
73102;SDS011;61294;65.988;29.172;2024-01-06T06:37:13;5.15;;;2.65;;
73102;SDS011;61294;65.988;29.172;2024-01-06T06:39:38;5.72;;;2.65;;
73102;SDS011;61294;65.988;29.172;2024-01-06T06:42:04;6.95;;;2.90;;
73102;SDS011;61294;65.988;29.172;2024-01-06T06:44:30;6.30;;;2.72;;
73102;SDS011;61294;65.988;29.172;2024-01-06T06:46:56;9.88;;;3.45;;
73102;SDS011;61294;65.988;29.172;2024-01-06T06:49:22;6.55;;;3.05;;
73102;SDS011;61294;65.988;29.172;2024-01-06T06:51:48;8.35;;;3.22;;
73102;SDS011;61294;65.988;29.172;2024-01-06T06:54:15;6.95;;;3.10;;
73102;SDS011;61294;65.988;29.172;2024-01-06T06:56:44;8.95;;;4.03;;
73102;SDS011;61294;65.988;29.172;2024-01-06T06:59:10;17.25;;;7.88;;
73102;SDS011;61294;65.988;29.172;2024-01-06T07:01:37;13.20;;;6.53;;
73102;SDS011;61294;65.988;29.172;2024-01-06T07:04:03;9.40;;;4.40;;
73102;SDS011;61294;65.988;29.172;2024-01-06T07:06:29;8.13;;;3.42;;
73102;SDS011;61294;65.988;29.172;2024-01-06T07:08:55;8.30;;;3.35;;
73102;SDS011;61294;65.988;29.172;2024-01-06T07:11:22;6.85;;;3.25;;
73102;SDS011;61294;65.988;29.172;2024-01-06T07:13:48;7.38;;;3.25;;
73102;SDS011;61294;65.988;29.172;2024-01-06T07:16:14;5.55;;;2.97;;
73102;SDS011;61294;65.988;29.172;2024-01-06T07:18:40;6.50;;;3.30;;
73102;SDS011;61294;65.988;29.172;2024-01-06T07:21:06;5.80;;;3.17;;
73102;SDS011;61294;65.988;29.172;2024-01-06T07:23:33;6.93;;;3.47;;
73102;SDS011;61294;65.988;29.172;2024-01-06T07:25:59;6.70;;;3.47;;
73102;SDS011;61294;65.988;29.172;2024-01-06T07:28:25;8.55;;;3.55;;
73102;SDS011;61294;65.988;29.172;2024-01-06T07:30:51;6.38;;;3.22;;
73102;SDS011;61294;65.988;29.172;2024-01-06T07:33:17;10.75;;;3.75;;
73102;SDS011;61294;65.988;29.172;2024-01-06T07:35:43;16.45;;;5.43;;
73102;SDS011;61294;65.988;29.172;2024-01-06T07:38:09;11.70;;;3.55;;
73102;SDS011;61294;65.988;29.172;2024-01-06T07:40:36;10.38;;;3.05;;
73102;SDS011;61294;65.988;29.172;2024-01-06T07:43:02;11.60;;;2.90;;
73102;SDS011;61294;65.988;29.172;2024-01-06T07:45:28;15.32;;;2.92;;
73102;SDS011;61294;65.988;29.172;2024-01-06T07:47:53;10.07;;;2.47;;
73102;SDS011;61294;65.988;29.172;2024-01-06T07:50:19;14.48;;;3.38;;
73102;SDS011;61294;65.988;29.172;2024-01-06T07:52:45;15.65;;;3.85;;
73102;SDS011;61294;65.988;29.172;2024-01-06T07:55:11;12.43;;;3.63;;
73102;SDS011;61294;65.988;29.172;2024-01-06T07:57:37;10.48;;;3.65;;
73102;SDS011;61294;65.988;29.172;2024-01-06T08:00:03;20.13;;;4.40;;
73102;SDS011;61294;65.988;29.172;2024-01-06T08:02:29;11.20;;;4.22;;
73102;SDS011;61294;65.988;29.172;2024-01-06T08:04:55;29.67;;;8.80;;
73102;SDS011;61294;65.988;29.172;2024-01-06T08:07:21;18.23;;;4.93;;
73102;SDS011;61294;65.988;29.172;2024-01-06T08:09:47;13.77;;;3.42;;
73102;SDS011;61294;65.988;29.172;2024-01-06T08:12:14;8.98;;;2.92;;
73102;SDS011;61294;65.988;29.172;2024-01-06T08:14:40;20.80;;;2.72;;
73102;SDS011;61294;65.988;29.172;2024-01-06T08:17:06;11.32;;;3.05;;
73102;SDS011;61294;65.988;29.172;2024-01-06T08:19:32;16.70;;;3.17;;
73102;SDS011;61294;65.988;29.172;2024-01-06T08:21:58;12.68;;;4.15;;
73102;SDS011;61294;65.988;29.172;2024-01-06T08:24:24;11.20;;;3.25;;
73102;SDS011;61294;65.988;29.172;2024-01-06T08:26:50;18.63;;;3.38;;
73102;SDS011;61294;65.988;29.172;2024-01-06T08:29:16;9.80;;;3.25;;
73102;SDS011;61294;65.988;29.172;2024-01-06T08:31:44;9.00;;;3.00;;
73102;SDS011;61294;65.988;29.172;2024-01-06T08:34:10;10.65;;;3.35;;
73102;SDS011;61294;65.988;29.172;2024-01-06T08:36:36;13.05;;;3.63;;
73102;SDS011;61294;65.988;29.172;2024-01-06T08:39:02;7.80;;;3.25;;
73102;SDS011;61294;65.988;29.172;2024-01-06T08:41:28;18.33;;;3.55;;
73102;SDS011;61294;65.988;29.172;2024-01-06T08:43:54;13.90;;;3.58;;
73102;SDS011;61294;65.988;29.172;2024-01-06T08:46:20;18.30;;;4.43;;
73102;SDS011;61294;65.988;29.172;2024-01-06T08:48:46;7.75;;;4.38;;
73102;SDS011;61294;65.988;29.172;2024-01-06T08:51:12;9.65;;;4.57;;
73102;SDS011;61294;65.988;29.172;2024-01-06T08:53:37;10.32;;;4.60;;
73102;SDS011;61294;65.988;29.172;2024-01-06T08:56:03;8.15;;;4.10;;
73102;SDS011;61294;65.988;29.172;2024-01-06T08:58:29;10.30;;;4.35;;
73102;SDS011;61294;65.988;29.172;2024-01-06T09:00:55;10.73;;;5.15;;
73102;SDS011;61294;65.988;29.172;2024-01-06T09:03:21;15.40;;;5.53;;
73102;SDS011;61294;65.988;29.172;2024-01-06T09:05:55;33.35;;;12.70;;
73102;SDS011;61294;65.988;29.172;2024-01-06T09:08:22;19.42;;;8.13;;
73102;SDS011;61294;65.988;29.172;2024-01-06T09:10:49;15.60;;;8.52;;
73102;SDS011;61294;65.988;29.172;2024-01-06T09:13:17;20.35;;;11.00;;
73102;SDS011;61294;65.988;29.172;2024-01-06T09:15:43;20.60;;;11.10;;
73102;SDS011;61294;65.988;29.172;2024-01-06T09:18:09;23.77;;;10.85;;
73102;SDS011;61294;65.988;29.172;2024-01-06T09:20:36;29.70;;;12.25;;
73102;SDS011;61294;65.988;29.172;2024-01-06T09:23:03;23.63;;;11.75;;
73102;SDS011;61294;65.988;29.172;2024-01-06T09:25:30;21.48;;;11.13;;
73102;SDS011;61294;65.988;29.172;2024-01-06T09:27:55;21.38;;;12.07;;
73102;SDS011;61294;65.988;29.172;2024-01-06T09:30:21;25.17;;;11.55;;
73102;SDS011;61294;65.988;29.172;2024-01-06T09:32:47;19.25;;;10.52;;
73102;SDS011;61294;65.988;29.172;2024-01-06T09:35:13;28.85;;;11.82;;
73102;SDS011;61294;65.988;29.172;2024-01-06T09:37:39;24.17;;;11.23;;
73102;SDS011;61294;65.988;29.172;2024-01-06T09:40:06;28.00;;;13.35;;
73102;SDS011;61294;65.988;29.172;2024-01-06T09:42:36;27.70;;;14.55;;
73102;SDS011;61294;65.988;29.172;2024-01-06T09:45:02;27.30;;;12.27;;
73102;SDS011;61294;65.988;29.172;2024-01-06T09:47:29;23.42;;;13.15;;
73102;SDS011;61294;65.988;29.172;2024-01-06T09:49:58;18.50;;;10.95;;
73102;SDS011;61294;65.988;29.172;2024-01-06T09:52:27;31.33;;;14.50;;
73102;SDS011;61294;65.988;29.172;2024-01-06T09:54:57;28.27;;;14.80;;
73102;SDS011;61294;65.988;29.172;2024-01-06T09:57:27;33.40;;;14.15;;
73102;SDS011;61294;65.988;29.172;2024-01-06T09:59:53;31.70;;;12.60;;
73102;SDS011;61294;65.988;29.172;2024-01-06T10:02:21;25.17;;;12.35;;
73102;SDS011;61294;65.988;29.172;2024-01-06T10:04:48;28.77;;;14.32;;
73102;SDS011;61294;65.988;29.172;2024-01-06T10:07:14;27.60;;;13.55;;
73102;SDS011;61294;65.988;29.172;2024-01-06T10:09:40;25.48;;;12.80;;
73102;SDS011;61294;65.988;29.172;2024-01-06T10:12:09;22.60;;;12.10;;
73102;SDS011;61294;65.988;29.172;2024-01-06T10:14:35;23.60;;;11.68;;
73102;SDS011;61294;65.988;29.172;2024-01-06T10:17:10;20.45;;;10.60;;
73102;SDS011;61294;65.988;29.172;2024-01-06T10:19:36;17.95;;;11.70;;
73102;SDS011;61294;65.988;29.172;2024-01-06T10:22:03;18.83;;;11.63;;
73102;SDS011;61294;65.988;29.172;2024-01-06T10:24:29;28.25;;;11.23;;
73102;SDS011;61294;65.988;29.172;2024-01-06T10:26:56;29.90;;;12.15;;
73102;SDS011;61294;65.988;29.172;2024-01-06T10:29:24;21.27;;;12.23;;
73102;SDS011;61294;65.988;29.172;2024-01-06T10:31:51;26.40;;;12.85;;
73102;SDS011;61294;65.988;29.172;2024-01-06T10:34:17;26.63;;;13.07;;
73102;SDS011;61294;65.988;29.172;2024-01-06T10:36:43;29.90;;;14.60;;
73102;SDS011;61294;65.988;29.172;2024-01-06T10:39:09;20.42;;;11.82;;
73102;SDS011;61294;65.988;29.172;2024-01-06T10:41:35;17.85;;;9.77;;
73102;SDS011;61294;65.988;29.172;2024-01-06T10:44:03;25.52;;;10.43;;
73102;SDS011;61294;65.988;29.172;2024-01-06T10:46:31;18.83;;;8.88;;
73102;SDS011;61294;65.988;29.172;2024-01-06T10:48:58;21.90;;;9.30;;
73102;SDS011;61294;65.988;29.172;2024-01-06T10:51:25;19.13;;;7.63;;
73102;SDS011;61294;65.988;29.172;2024-01-06T10:53:52;15.38;;;7.28;;
73102;SDS011;61294;65.988;29.172;2024-01-06T10:56:19;16.63;;;6.05;;
73102;SDS011;61294;65.988;29.172;2024-01-06T10:58:46;25.83;;;6.85;;
73102;SDS011;61294;65.988;29.172;2024-01-06T11:01:15;13.27;;;6.15;;
73102;SDS011;61294;65.988;29.172;2024-01-06T11:03:45;23.50;;;7.85;;
73102;SDS011;61294;65.988;29.172;2024-01-06T11:06:11;21.40;;;7.10;;
73102;SDS011;61294;65.988;29.172;2024-01-06T11:08:44;19.63;;;7.18;;
73102;SDS011;61294;65.988;29.172;2024-01-06T11:11:27;15.63;;;6.97;;
73102;SDS011;61294;65.988;29.172;2024-01-06T11:13:54;16.02;;;6.40;;
73102;SDS011;61294;65.988;29.172;2024-01-06T11:16:49;24.25;;;8.15;;
73102;SDS011;61294;65.988;29.172;2024-01-06T11:24:49;15.02;;;7.45;;
73102;SDS011;61294;65.988;29.172;2024-01-06T11:27:17;24.17;;;8.50;;
73102;SDS011;61294;65.988;29.172;2024-01-06T11:29:44;18.90;;;8.85;;
73102;SDS011;61294;65.988;29.172;2024-01-06T11:32:24;20.98;;;10.27;;
73102;SDS011;61294;65.988;29.172;2024-01-06T11:34:50;23.90;;;11.27;;
73102;SDS011;61294;65.988;29.172;2024-01-06T11:37:20;25.50;;;11.18;;
73102;SDS011;61294;65.988;29.172;2024-01-06T11:39:50;33.47;;;12.73;;
73102;SDS011;61294;65.988;29.172;2024-01-06T11:42:16;39.55;;;12.93;;
73102;SDS011;61294;65.988;29.172;2024-01-06T11:44:45;27.45;;;10.27;;
73102;SDS011;61294;65.988;29.172;2024-01-06T11:47:15;22.48;;;8.82;;
73102;SDS011;61294;65.988;29.172;2024-01-06T11:49:48;18.23;;;8.47;;
73102;SDS011;61294;65.988;29.172;2024-01-06T11:52:20;21.83;;;8.73;;
73102;SDS011;61294;65.988;29.172;2024-01-06T11:54:47;19.52;;;8.43;;
73102;SDS011;61294;65.988;29.172;2024-01-06T11:57:13;18.33;;;8.45;;
73102;SDS011;61294;65.988;29.172;2024-01-06T11:59:39;15.98;;;7.60;;
73102;SDS011;61294;65.988;29.172;2024-01-06T12:02:05;16.83;;;7.40;;
73102;SDS011;61294;65.988;29.172;2024-01-06T12:04:31;14.98;;;7.00;;
73102;SDS011;61294;65.988;29.172;2024-01-06T12:07:09;12.90;;;5.95;;
73102;SDS011;61294;65.988;29.172;2024-01-06T12:09:39;11.63;;;6.00;;
73102;SDS011;61294;65.988;29.172;2024-01-06T12:12:05;14.50;;;6.07;;
73102;SDS011;61294;65.988;29.172;2024-01-06T12:14:31;7.45;;;4.28;;
73102;SDS011;61294;65.988;29.172;2024-01-06T12:17:00;11.30;;;4.80;;
73102;SDS011;61294;65.988;29.172;2024-01-06T12:19:30;11.95;;;4.15;;
73102;SDS011;61294;65.988;29.172;2024-01-06T12:21:57;23.50;;;4.90;;
73102;SDS011;61294;65.988;29.172;2024-01-06T12:24:23;15.25;;;4.47;;
73102;SDS011;61294;65.988;29.172;2024-01-06T12:26:49;8.40;;;3.67;;
73102;SDS011;61294;65.988;29.172;2024-01-06T12:29:16;13.27;;;3.90;;
73102;SDS011;61294;65.988;29.172;2024-01-06T12:31:43;6.10;;;3.90;;
73102;SDS011;61294;65.988;29.172;2024-01-06T12:34:09;10.73;;;3.83;;
73102;SDS011;61294;65.988;29.172;2024-01-06T12:36:39;14.65;;;3.80;;
73102;SDS011;61294;65.988;29.172;2024-01-06T12:39:11;12.77;;;5.07;;
73102;SDS011;61294;65.988;29.172;2024-01-06T12:41:42;7.82;;;3.42;;
73102;SDS011;61294;65.988;29.172;2024-01-06T12:44:09;9.02;;;3.63;;
73102;SDS011;61294;65.988;29.172;2024-01-06T12:46:35;7.90;;;3.40;;
73102;SDS011;61294;65.988;29.172;2024-01-06T12:49:01;12.18;;;3.78;;
73102;SDS011;61294;65.988;29.172;2024-01-06T12:51:27;12.25;;;4.47;;
73102;SDS011;61294;65.988;29.172;2024-01-06T12:53:54;12.60;;;4.40;;
73102;SDS011;61294;65.988;29.172;2024-01-06T12:56:20;9.05;;;4.47;;
73102;SDS011;61294;65.988;29.172;2024-01-06T12:58:45;9.02;;;4.25;;
73102;SDS011;61294;65.988;29.172;2024-01-06T13:01:11;11.75;;;3.97;;
73102;SDS011;61294;65.988;29.172;2024-01-06T13:03:37;8.05;;;4.60;;
73102;SDS011;61294;65.988;29.172;2024-01-06T13:06:04;13.25;;;4.15;;
73102;SDS011;61294;65.988;29.172;2024-01-06T13:08:30;10.35;;;4.70;;
73102;SDS011;61294;65.988;29.172;2024-01-06T13:10:56;11.55;;;4.28;;
73102;SDS011;61294;65.988;29.172;2024-01-06T13:13:22;11.27;;;3.72;;
73102;SDS011;61294;65.988;29.172;2024-01-06T13:15:48;7.28;;;4.25;;
73102;SDS011;61294;65.988;29.172;2024-01-06T13:18:14;12.40;;;4.90;;
73102;SDS011;61294;65.988;29.172;2024-01-06T13:20:42;9.98;;;4.13;;
73102;SDS011;61294;65.988;29.172;2024-01-06T13:23:08;9.30;;;4.50;;
73102;SDS011;61294;65.988;29.172;2024-01-06T13:25:36;9.63;;;5.35;;
73102;SDS011;61294;65.988;29.172;2024-01-06T13:28:03;22.38;;;9.70;;
73102;SDS011;61294;65.988;29.172;2024-01-06T13:30:31;16.08;;;4.78;;
73102;SDS011;61294;65.988;29.172;2024-01-06T13:32:57;9.90;;;5.70;;
73102;SDS011;61294;65.988;29.172;2024-01-06T13:35:24;10.07;;;3.97;;
73102;SDS011;61294;65.988;29.172;2024-01-06T13:37:50;7.32;;;3.85;;
73102;SDS011;61294;65.988;29.172;2024-01-06T13:40:17;7.22;;;3.55;;
73102;SDS011;61294;65.988;29.172;2024-01-06T13:42:49;7.18;;;4.07;;
73102;SDS011;61294;65.988;29.172;2024-01-06T13:45:16;8.02;;;4.22;;
73102;SDS011;61294;65.988;29.172;2024-01-06T13:47:42;10.30;;;5.13;;
73102;SDS011;61294;65.988;29.172;2024-01-06T13:50:15;24.33;;;11.55;;
73102;SDS011;61294;65.988;29.172;2024-01-06T13:52:42;19.35;;;9.50;;
73102;SDS011;61294;65.988;29.172;2024-01-06T13:55:08;16.02;;;5.80;;
73102;SDS011;61294;65.988;29.172;2024-01-06T13:57:35;8.00;;;4.20;;
73102;SDS011;61294;65.988;29.172;2024-01-06T14:00:07;9.07;;;4.18;;
73102;SDS011;61294;65.988;29.172;2024-01-06T14:02:33;13.02;;;5.25;;
73102;SDS011;61294;65.988;29.172;2024-01-06T14:05:00;15.52;;;7.35;;
73102;SDS011;61294;65.988;29.172;2024-01-06T14:07:26;17.88;;;8.70;;
73102;SDS011;61294;65.988;29.172;2024-01-06T14:09:52;21.25;;;9.27;;
73102;SDS011;61294;65.988;29.172;2024-01-06T14:12:25;20.98;;;9.98;;
73102;SDS011;61294;65.988;29.172;2024-01-06T14:14:51;19.35;;;9.63;;
73102;SDS011;61294;65.988;29.172;2024-01-06T14:17:17;13.63;;;5.82;;
73102;SDS011;61294;65.988;29.172;2024-01-06T14:19:42;27.77;;;12.88;;
73102;SDS011;61294;65.988;29.172;2024-01-06T14:22:08;11.35;;;4.85;;
73102;SDS011;61294;65.988;29.172;2024-01-06T14:24:34;8.90;;;4.40;;
73102;SDS011;61294;65.988;29.172;2024-01-06T14:27:01;6.85;;;3.92;;
73102;SDS011;61294;65.988;29.172;2024-01-06T14:29:28;11.35;;;4.40;;
73102;SDS011;61294;65.988;29.172;2024-01-06T14:31:55;8.35;;;4.93;;